createdAt,value
2022-08-24T00:00:00.094Z,27.00
2022-08-24T00:10:01.442Z,26.00
2022-08-24T00:20:00.161Z,21.60
2022-08-24T00:30:00.096Z,40.80
2022-08-24T00:40:00.189Z,21.00
2022-08-24T00:50:00.090Z,15.10
2022-08-24T01:00:00.113Z,22.30
2022-08-24T01:10:00.127Z,20.30
2022-08-24T01:20:00.525Z,16.40
2022-08-24T01:30:00.079Z,17.30
2022-08-24T01:40:00.166Z,14.70
2022-08-24T01:50:00.102Z,18.80
2022-08-24T02:00:00.081Z,19.40
2022-08-24T02:10:00.083Z,20.20
2022-08-24T02:20:00.114Z,18.40
2022-08-24T02:30:01.228Z,37.30
2022-08-24T02:40:00.192Z,41.80
2022-08-24T02:50:00.118Z,36.60
2022-08-24T03:00:00.096Z,43.80
2022-08-24T03:10:00.089Z,44.40
2022-08-24T03:20:00.100Z,43.30
2022-08-24T03:30:00.131Z,44.20
2022-08-24T03:40:00.162Z,42.00
2022-08-24T03:50:00.100Z,36.50
2022-08-24T04:00:00.139Z,37.40
2022-08-24T04:10:00.086Z,55.70
2022-08-24T04:20:00.113Z,50.10
2022-08-24T04:30:01.230Z,47.00
2022-08-24T04:40:00.213Z,50.00
2022-08-24T04:50:00.160Z,44.50
2022-08-24T05:00:00.118Z,62.70
2022-08-24T05:10:02.768Z,55.10
2022-08-24T05:20:00.135Z,55.20
2022-08-24T05:30:00.102Z,56.20
2022-08-24T05:40:00.173Z,59.30
2022-08-24T05:50:00.141Z,60.20
2022-08-24T06:00:00.131Z,62.80
2022-08-24T06:10:10.025Z,54.60
2022-08-24T06:20:00.154Z,50.90
2022-08-24T06:30:00.108Z,55.30
2022-08-24T06:40:01.375Z,53.50
2022-08-24T06:50:00.146Z,53.90
2022-08-24T07:00:00.095Z,46.00
2022-08-24T07:10:00.111Z,59.10
2022-08-24T07:20:00.130Z,77.90
2022-08-24T07:30:16.436Z,76.80
2022-08-24T07:40:00.282Z,72.70
2022-08-24T07:50:00.106Z,135.40
2022-08-24T08:00:00.133Z,250.10
2022-08-24T08:10:00.120Z,165.60
2022-08-24T08:20:00.124Z,169.00
2022-08-24T08:30:00.087Z,198.40
2022-08-24T08:40:00.234Z,150.10
2022-08-24T08:50:00.134Z,165.40
2022-08-24T09:00:00.110Z,169.10
2022-08-24T09:10:00.105Z,137.10
2022-08-24T09:20:00.135Z,166.40
2022-08-24T09:30:00.117Z,213.70
2022-08-24T09:40:00.203Z,232.70
2022-08-24T09:50:00.130Z,227.90
2022-08-24T10:00:00.082Z,182.80
2022-08-24T10:10:00.118Z,136.80
2022-08-24T10:20:00.124Z,141.30
2022-08-24T10:30:00.106Z,170.70
2022-08-24T10:40:02.109Z,167.50
2022-08-24T10:50:00.147Z,181.10
2022-08-24T11:00:00.074Z,174.70
2022-08-24T11:10:00.135Z,702.10
2022-08-24T11:20:00.135Z,759.60
2022-08-24T11:30:02.489Z,781.70
2022-08-24T11:40:00.142Z,756.10
2022-08-24T11:50:00.122Z,790.90
2022-08-24T12:00:00.069Z,802.70
2022-08-24T12:10:00.171Z,825.20
2022-08-24T12:20:00.110Z,810.30
2022-08-24T12:30:00.139Z,808.60
2022-08-24T12:40:00.217Z,795.30
2022-08-24T12:50:00.138Z,834.30
2022-08-24T13:00:01.393Z,402.10
2022-08-24T13:10:00.121Z,631.90
2022-08-24T13:20:00.144Z,785.30
2022-08-24T13:30:00.080Z,766.20
2022-08-24T13:40:00.159Z,743.40
2022-08-24T13:50:00.147Z,746.20
2022-08-24T14:00:00.123Z,658.60
2022-08-24T14:10:00.146Z,672.40
2022-08-24T14:20:00.122Z,636.10
2022-08-24T14:30:00.104Z,708.50
2022-08-24T14:40:00.368Z,630.40
2022-08-24T14:50:00.119Z,248.00
2022-08-24T15:00:00.138Z,487.20
2022-08-24T15:10:00.105Z,659.80
2022-08-24T15:20:00.164Z,769.40
2022-08-24T15:30:00.107Z,544.80
2022-08-24T15:40:00.169Z,281.30
2022-08-24T15:50:00.197Z,292.50
2022-08-24T16:00:00.206Z,260.90
2022-08-24T16:10:00.268Z,335.30
2022-08-24T16:20:00.160Z,210.00
2022-08-24T16:30:00.146Z,293.60
2022-08-24T16:40:00.222Z,169.30
2022-08-24T16:50:01.237Z,191.80
2022-08-24T17:00:00.130Z,220.70
2022-08-24T17:10:00.116Z,225.00
2022-08-24T17:20:00.093Z,186.90
2022-08-24T17:30:00.145Z,186.40
2022-08-24T17:40:00.216Z,166.40
2022-08-24T17:50:04.115Z,173.20
2022-08-24T18:00:01.386Z,212.90
2022-08-24T18:10:00.125Z,147.30
2022-08-24T18:20:00.181Z,198.60
2022-08-24T18:30:00.122Z,226.30
2022-08-24T18:40:00.295Z,182.20
2022-08-24T18:50:00.139Z,227.60
2022-08-24T19:00:00.101Z,209.30
2022-08-24T19:10:00.123Z,208.30
2022-08-24T19:20:00.129Z,146.20
2022-08-24T19:30:00.148Z,160.50
2022-08-24T19:40:00.235Z,207.80
2022-08-24T19:50:01.961Z,123.20
2022-08-24T20:00:00.180Z,246.20
2022-08-24T20:10:00.109Z,442.00
2022-08-24T20:20:00.083Z,148.20
2022-08-24T20:30:00.133Z,127.80
2022-08-24T20:40:00.202Z,159.60
2022-08-24T20:50:00.131Z,133.80
2022-08-24T21:00:00.162Z,103.90
2022-08-24T21:10:00.120Z,117.80
2022-08-24T21:20:00.119Z,102.70
2022-08-24T21:30:00.136Z,142.30
2022-08-24T21:40:00.219Z,140.80
2022-08-24T21:50:02.525Z,136.60
2022-08-24T22:00:01.957Z,97.50
2022-08-24T22:10:00.139Z,110.50
2022-08-24T22:20:00.160Z,110.20
2022-08-24T22:30:00.110Z,124.50
2022-08-24T22:40:00.179Z,89.50
2022-08-24T22:50:00.147Z,105.30
2022-08-24T23:00:00.110Z,83.60
2022-08-24T23:10:00.134Z,99.70
2022-08-24T23:20:01.168Z,76.80
2022-08-24T23:30:00.105Z,83.10
2022-08-24T23:40:01.269Z,63.10
2022-08-24T23:50:00.130Z,74.80
